createdAt,value
2018-10-05T00:02:16.244Z,93.30
2018-10-05T00:04:45.915Z,93.31
2018-10-05T00:07:15.720Z,93.69
2018-10-05T00:09:45.473Z,93.87
2018-10-05T00:12:15.159Z,94.01
2018-10-05T00:14:44.807Z,93.82
2018-10-05T00:17:14.471Z,93.61
2018-10-05T00:19:44.127Z,93.40
2018-10-05T00:22:13.857Z,93.31
2018-10-05T00:24:43.463Z,93.21
2018-10-05T00:27:13.102Z,93.08
2018-10-05T00:29:42.723Z,93.17
2018-10-05T00:32:12.387Z,92.59
2018-10-05T00:34:42.004Z,93.06
2018-10-05T00:37:11.675Z,92.80
2018-10-05T00:39:41.319Z,92.46
2018-10-05T00:42:11.002Z,92.40
2018-10-05T00:44:40.654Z,92.17
2018-10-05T00:47:10.367Z,92.30
2018-10-05T00:49:40.028Z,91.82
2018-10-05T00:52:09.715Z,91.47
2018-10-05T00:54:39.354Z,91.51
2018-10-05T00:57:08.996Z,91.09
2018-10-05T00:59:38.798Z,91.27
2018-10-05T01:02:08.544Z,90.83
2018-10-05T01:04:38.289Z,91.37
2018-10-05T01:07:07.975Z,91.13
2018-10-05T01:09:37.579Z,91.49
2018-10-05T01:12:07.400Z,91.27
2018-10-05T01:14:37.006Z,91.18
2018-10-05T01:17:06.748Z,91.08
2018-10-05T01:19:37.134Z,91.32
2018-10-05T01:22:06.938Z,91.41
2018-10-05T01:24:36.580Z,91.69
2018-10-05T01:27:06.248Z,90.91
2018-10-05T01:29:35.934Z,91.32
2018-10-05T01:32:05.616Z,90.72
2018-10-05T01:34:35.290Z,90.97
2018-10-05T01:37:04.753Z,91.09
2018-10-05T01:39:34.170Z,91.11
2018-10-05T01:42:03.624Z,90.61
2018-10-05T01:44:33.057Z,90.87
2018-10-05T01:47:02.634Z,91.32
2018-10-05T01:49:32.074Z,90.62
2018-10-05T01:52:01.545Z,90.81
2018-10-05T01:54:30.955Z,90.52
2018-10-05T01:57:00.423Z,90.44
2018-10-05T01:59:29.844Z,90.38
2018-10-05T02:01:59.272Z,90.06
2018-10-05T02:04:28.674Z,90.40
2018-10-05T02:06:58.256Z,90.36
2018-10-05T02:09:27.717Z,90.35
2018-10-05T02:11:57.099Z,90.72
2018-10-05T02:14:26.672Z,90.21
2018-10-05T02:16:56.197Z,90.20
2018-10-05T02:19:25.620Z,90.22
2018-10-05T02:21:55.202Z,90.35
2018-10-05T02:24:24.604Z,90.04
2018-10-05T02:26:54.032Z,90.17
2018-10-05T02:29:23.449Z,90.09
2018-10-05T02:31:53.169Z,90.10
2018-10-05T02:34:22.564Z,90.06
2018-10-05T02:36:52.026Z,89.76
2018-10-05T02:39:21.408Z,89.40
2018-10-05T02:41:50.869Z,89.51
2018-10-05T02:44:20.216Z,89.98
2018-10-05T02:46:49.666Z,89.73
2018-10-05T02:49:19.076Z,89.42
2018-10-05T02:51:48.643Z,89.25
2018-10-05T02:54:18.031Z,89.51
2018-10-05T02:56:47.420Z,89.21
2018-10-05T02:59:16.959Z,89.68
2018-10-05T03:02:03.258Z,89.06
2018-10-05T03:04:32.960Z,88.93
2018-10-05T03:07:02.433Z,89.06
2018-10-05T03:09:31.838Z,88.91
2018-10-05T03:12:01.344Z,88.61
2018-10-05T03:14:30.742Z,89.21
2018-10-05T03:17:00.173Z,88.77
2018-10-05T03:19:29.620Z,89.19
2018-10-05T03:21:59.019Z,88.94
2018-10-05T03:24:28.424Z,88.59
2018-10-05T03:26:57.839Z,89.05
2018-10-05T03:29:27.586Z,88.79
2018-10-05T03:31:57.026Z,88.14
2018-10-05T03:34:26.482Z,88.61
2018-10-05T03:36:55.886Z,88.23
2018-10-05T03:39:25.331Z,87.97
2018-10-05T03:41:54.760Z,87.86
2018-10-05T03:44:24.193Z,87.75
2018-10-05T03:46:53.623Z,87.96
2018-10-05T03:49:23.084Z,87.63
2018-10-05T03:51:52.579Z,87.51
2018-10-05T03:54:22.054Z,87.74
2018-10-05T03:56:51.539Z,87.90
2018-10-05T03:59:20.969Z,87.53
2018-10-05T04:01:50.415Z,88.04
2018-10-05T04:04:19.857Z,87.31
2018-10-05T04:06:49.320Z,87.38
2018-10-05T04:09:18.840Z,87.01
2018-10-05T04:11:48.391Z,87.23
2018-10-05T04:14:17.948Z,87.40
2018-10-05T04:16:47.499Z,87.31
2018-10-05T04:19:16.996Z,86.66
2018-10-05T04:21:46.426Z,86.97
2018-10-05T04:24:15.848Z,87.25
2018-10-05T04:26:45.275Z,86.60
2018-10-05T04:29:14.868Z,86.63
2018-10-05T04:31:44.432Z,86.49
2018-10-05T04:34:13.869Z,86.28
2018-10-05T04:36:43.293Z,86.26
2018-10-05T04:39:13.772Z,86.26
2018-10-05T04:41:43.209Z,86.30
2018-10-05T04:44:12.611Z,85.68
2018-10-05T04:46:42.015Z,86.45
2018-10-05T04:49:11.470Z,85.64
2018-10-05T04:51:40.891Z,85.95
2018-10-05T04:54:10.302Z,85.94
2018-10-05T04:56:39.777Z,85.33
2018-10-05T04:59:09.168Z,85.39
2018-10-05T05:01:38.552Z,85.76
2018-10-05T05:04:07.988Z,85.15
2018-10-05T05:06:37.400Z,84.79
2018-10-05T05:09:08.157Z,84.93
2018-10-05T05:11:37.712Z,85.07
2018-10-05T05:14:07.092Z,84.82
2018-10-05T05:16:36.488Z,84.88
2018-10-05T05:19:06.411Z,84.86
2018-10-05T05:21:35.823Z,84.72
2018-10-05T05:24:05.234Z,84.84
2018-10-05T05:26:34.663Z,84.85
2018-10-05T05:29:04.092Z,84.45
2018-10-05T05:31:33.529Z,84.25
2018-10-05T05:34:03.221Z,84.83
2018-10-05T05:36:32.691Z,84.62
2018-10-05T05:39:02.223Z,84.02
2018-10-05T05:41:31.692Z,84.46
2018-10-05T05:44:01.107Z,84.39
2018-10-05T05:46:30.572Z,84.33
2018-10-05T05:49:00.046Z,84.33
2018-10-05T05:51:29.516Z,84.11
2018-10-05T05:53:58.967Z,84.12
2018-10-05T05:56:28.467Z,84.27
2018-10-05T05:58:57.904Z,83.79
2018-10-05T06:01:27.329Z,83.44
2018-10-05T06:03:56.882Z,83.76
2018-10-05T06:06:26.309Z,83.58
2018-10-05T06:08:55.816Z,82.98
2018-10-05T06:11:25.275Z,82.62
2018-10-05T06:13:54.680Z,82.13
2018-10-05T06:16:24.187Z,82.60
2018-10-05T06:18:53.609Z,81.51
2018-10-05T06:21:23.078Z,81.12
2018-10-05T06:23:52.425Z,81.15
2018-10-05T06:26:21.846Z,81.17
2018-10-05T06:28:51.259Z,80.16
2018-10-05T06:31:20.671Z,80.33
2018-10-05T06:33:50.300Z,79.21
2018-10-05T06:36:19.680Z,76.60
2018-10-05T06:38:49.151Z,73.26
2018-10-05T06:41:18.710Z,69.60
2018-10-05T06:43:48.097Z,66.20
2018-10-05T06:46:17.481Z,62.71
2018-10-05T06:48:46.895Z,59.53
2018-10-05T06:51:16.297Z,56.58
2018-10-05T06:53:45.806Z,53.95
2018-10-05T06:56:15.280Z,51.15
2018-10-05T06:58:44.680Z,49.04
2018-10-05T07:01:14.247Z,47.93
2018-10-05T07:03:43.597Z,46.19
2018-10-05T07:06:13.004Z,44.98
2018-10-05T07:08:42.428Z,43.35
2018-10-05T07:11:11.910Z,42.13
2018-10-05T07:13:41.360Z,41.19
2018-10-05T07:16:10.771Z,40.23
2018-10-05T07:18:40.378Z,39.60
2018-10-05T07:21:09.877Z,38.68
2018-10-05T07:23:39.338Z,38.09
2018-10-05T07:26:08.758Z,36.27
2018-10-05T07:28:38.193Z,36.50
2018-10-05T07:31:08.005Z,35.10
2018-10-05T07:33:37.584Z,34.27
2018-10-05T07:36:07.173Z,34.37
2018-10-05T07:38:36.684Z,34.10
2018-10-05T07:41:06.447Z,32.98
2018-10-05T07:43:35.892Z,32.70
2018-10-05T07:46:05.361Z,32.80
2018-10-05T07:48:34.928Z,32.10
2018-10-05T07:51:04.330Z,32.05
2018-10-05T07:53:33.754Z,31.51
2018-10-05T07:56:03.347Z,31.67
2018-10-05T07:58:32.761Z,31.02
2018-10-05T08:01:02.174Z,30.92
2018-10-05T08:03:31.603Z,30.55
2018-10-05T08:06:01.057Z,30.86
2018-10-05T08:08:30.479Z,30.95
2018-10-05T08:10:59.879Z,29.54
2018-10-05T08:13:29.288Z,30.04
2018-10-05T08:15:58.786Z,28.77
2018-10-05T08:18:28.202Z,29.38
2018-10-05T08:20:57.603Z,28.58
2018-10-05T08:23:27.046Z,28.13
2018-10-05T08:25:56.580Z,28.73
2018-10-05T08:28:25.987Z,28.02
2018-10-05T08:30:55.404Z,27.63
2018-10-05T08:33:24.996Z,27.83
2018-10-05T08:35:54.517Z,28.26
2018-10-05T08:38:23.992Z,27.24
2018-10-05T08:40:53.446Z,27.03
2018-10-05T08:43:22.928Z,27.62
2018-10-05T08:45:52.418Z,26.72
2018-10-05T08:48:21.747Z,27.11
2018-10-05T08:50:51.190Z,26.19
2018-10-05T08:53:20.586Z,26.78
2018-10-05T08:55:50.273Z,26.07
2018-10-05T08:58:19.673Z,25.70
2018-10-05T09:00:49.076Z,26.16
2018-10-05T09:03:18.504Z,26.03
2018-10-05T09:05:47.985Z,25.75
2018-10-05T09:08:17.521Z,25.00
2018-10-05T09:10:46.935Z,25.56
2018-10-05T09:13:16.313Z,25.79
2018-10-05T09:15:45.721Z,25.14
2018-10-05T09:18:15.318Z,25.00
2018-10-05T09:20:44.627Z,24.72
2018-10-05T09:23:14.011Z,24.90
2018-10-05T09:25:43.437Z,24.76
2018-10-05T09:28:12.820Z,24.61
2018-10-05T09:30:42.231Z,25.24
2018-10-05T09:33:11.796Z,24.50
2018-10-05T09:35:41.181Z,25.21
2018-10-05T09:38:10.567Z,24.75
2018-10-05T09:40:40.016Z,25.84
2018-10-05T09:43:09.418Z,25.01
2018-10-05T09:45:38.893Z,25.62
2018-10-05T09:48:08.587Z,25.66
2018-10-05T09:50:37.977Z,25.92
2018-10-05T09:53:07.396Z,25.88
2018-10-05T09:55:36.981Z,26.90
2018-10-05T09:58:06.408Z,26.85
2018-10-05T10:00:41.475Z,26.28
2018-10-05T10:03:16.072Z,26.75
2018-10-05T10:05:45.600Z,26.50
2018-10-05T10:08:15.195Z,27.04
2018-10-05T10:10:44.605Z,27.50
2018-10-05T10:13:14.020Z,28.16
2018-10-05T10:15:43.409Z,28.29
2018-10-05T10:18:12.863Z,28.27
2018-10-05T10:20:42.328Z,28.61
2018-10-05T10:23:11.716Z,29.99
2018-10-05T10:25:41.233Z,30.06
2018-10-05T10:28:10.705Z,29.78
2018-10-05T10:30:40.102Z,29.99
2018-10-05T10:33:09.509Z,31.52
2018-10-05T10:35:38.956Z,31.49
2018-10-05T10:38:08.341Z,32.90
2018-10-05T10:40:37.739Z,33.21
2018-10-05T10:43:07.528Z,33.93
2018-10-05T10:45:36.997Z,34.63
2018-10-05T10:48:06.796Z,35.24
2018-10-05T10:50:36.169Z,35.31
2018-10-05T10:53:05.601Z,35.75
2018-10-05T10:55:34.930Z,35.41
2018-10-05T10:58:04.440Z,35.96
2018-10-05T11:00:33.972Z,36.11
2018-10-05T11:03:03.733Z,36.02
2018-10-05T11:05:33.151Z,36.05
2018-10-05T11:08:03.548Z,37.09
2018-10-05T11:10:32.973Z,37.76
2018-10-05T11:13:02.431Z,38.41
2018-10-05T11:15:31.819Z,39.40
2018-10-05T11:18:01.234Z,39.44
2018-10-05T11:20:30.840Z,40.79
2018-10-05T11:23:00.286Z,41.38
2018-10-05T11:25:29.835Z,41.41
2018-10-05T11:27:59.396Z,42.32
2018-10-05T11:30:28.848Z,42.28
2018-10-05T11:32:58.308Z,42.90
2018-10-05T11:35:27.909Z,42.90
2018-10-05T11:37:57.388Z,42.77
2018-10-05T11:40:26.911Z,43.32
2018-10-05T11:42:56.362Z,44.42
2018-10-05T11:45:25.787Z,44.77
2018-10-05T11:47:55.316Z,45.37
2018-10-05T11:50:24.900Z,45.22
2018-10-05T11:52:54.392Z,45.44
2018-10-05T11:55:23.851Z,45.71
2018-10-05T11:57:53.316Z,45.10
2018-10-05T12:00:22.713Z,45.68
2018-10-05T12:02:52.124Z,45.10
2018-10-05T12:05:21.556Z,45.83
2018-10-05T12:07:50.925Z,45.45
2018-10-05T12:10:20.314Z,44.95
2018-10-05T12:12:49.834Z,45.23
2018-10-05T12:15:19.244Z,45.64
2018-10-05T12:17:48.723Z,45.29
2018-10-05T12:20:18.151Z,45.02
2018-10-05T12:22:47.664Z,44.84
2018-10-05T12:25:17.054Z,45.30
2018-10-05T12:27:46.682Z,45.15
2018-10-05T12:30:16.206Z,44.71
2018-10-05T12:32:45.709Z,44.80
2018-10-05T12:35:15.167Z,44.36
2018-10-05T12:37:44.576Z,44.01
2018-10-05T12:40:13.984Z,44.11
2018-10-05T12:42:43.384Z,43.84
2018-10-05T12:45:12.759Z,43.74
2018-10-05T12:47:42.181Z,44.36
2018-10-05T12:50:11.647Z,44.31
2018-10-05T12:52:41.084Z,44.03
2018-10-05T12:55:10.492Z,44.12
2018-10-05T12:57:39.955Z,44.33
2018-10-05T13:00:09.433Z,44.75
2018-10-05T13:02:38.892Z,45.02
2018-10-05T13:05:08.656Z,44.23
2018-10-05T13:07:38.094Z,44.76
2018-10-05T13:10:07.548Z,44.86
2018-10-05T13:12:36.968Z,44.38
2018-10-05T13:15:06.529Z,44.61
2018-10-05T13:17:35.956Z,44.25
2018-10-05T13:20:05.411Z,44.67
2018-10-05T13:22:34.792Z,44.95
2018-10-05T13:25:04.172Z,45.00
2018-10-05T13:27:33.708Z,44.59
2018-10-05T13:30:03.156Z,45.12
2018-10-05T13:32:32.560Z,44.86
2018-10-05T13:35:01.980Z,44.26
2018-10-05T13:37:31.487Z,44.99
2018-10-05T13:40:00.824Z,44.75
2018-10-05T13:42:30.296Z,44.99
2018-10-05T13:44:59.692Z,45.04
2018-10-05T13:47:29.099Z,45.09
2018-10-05T13:49:58.534Z,45.19
2018-10-05T13:52:27.903Z,45.19
2018-10-05T13:54:57.460Z,45.19
2018-10-05T13:57:26.968Z,45.07
2018-10-05T13:59:56.363Z,45.39
2018-10-05T14:02:25.757Z,44.46
2018-10-05T14:04:55.410Z,44.44
2018-10-05T14:07:24.815Z,45.35
2018-10-05T14:09:54.236Z,44.83
2018-10-05T14:12:23.706Z,45.16
2018-10-05T14:14:53.260Z,45.14
2018-10-05T14:17:22.790Z,45.43
2018-10-05T14:19:52.368Z,45.21
2018-10-05T14:22:21.801Z,45.36
2018-10-05T14:24:51.200Z,44.91
2018-10-05T14:27:20.708Z,45.20
2018-10-05T14:29:50.079Z,45.61
2018-10-05T14:32:19.552Z,45.49
2018-10-05T14:34:50.721Z,45.66
2018-10-05T14:37:20.159Z,45.95
2018-10-05T14:39:49.545Z,45.47
2018-10-05T14:42:18.952Z,46.35
2018-10-05T14:44:48.370Z,45.63
2018-10-05T14:47:17.760Z,45.96
2018-10-05T14:49:47.216Z,45.86
2018-10-05T14:52:20.701Z,46.07
2018-10-05T14:54:50.103Z,46.55
2018-10-05T14:57:19.931Z,46.59
2018-10-05T14:59:49.371Z,46.80
2018-10-05T15:02:18.780Z,46.98
2018-10-05T15:04:48.816Z,46.95
2018-10-05T15:07:18.223Z,47.28
2018-10-05T15:09:47.848Z,47.47
2018-10-05T15:12:17.222Z,47.71
2018-10-05T15:14:46.587Z,47.30
2018-10-05T15:17:15.999Z,47.30
2018-10-05T15:19:45.402Z,47.52
2018-10-05T15:22:14.931Z,47.93
2018-10-05T15:24:44.563Z,48.38
2018-10-05T15:27:14.010Z,48.00
2018-10-05T15:29:43.396Z,48.76
2018-10-05T15:32:12.827Z,48.74
2018-10-05T15:34:42.331Z,48.93
2018-10-05T15:37:11.779Z,49.49
2018-10-05T15:39:41.243Z,48.92
2018-10-05T15:42:10.667Z,49.11
2018-10-05T15:44:40.170Z,49.28
2018-10-05T15:47:13.241Z,49.58
2018-10-05T15:49:43.055Z,49.77
2018-10-05T15:52:12.516Z,49.95
2018-10-05T15:54:42.084Z,50.21
2018-10-05T15:57:11.516Z,50.23
2018-10-05T15:59:40.919Z,50.50
2018-10-05T16:02:10.327Z,51.18
2018-10-05T16:04:39.744Z,51.60
2018-10-05T16:07:09.139Z,51.05
2018-10-05T16:09:38.542Z,52.05
2018-10-05T16:12:07.979Z,51.75
2018-10-05T16:14:37.473Z,52.39
2018-10-05T16:17:07.025Z,52.44
2018-10-05T16:19:36.455Z,52.14
2018-10-05T16:22:05.892Z,52.46
2018-10-05T16:24:38.411Z,53.25
2018-10-05T16:27:08.016Z,52.74
2018-10-05T16:29:37.753Z,53.15
2018-10-05T16:32:07.784Z,53.32
2018-10-05T16:34:37.201Z,53.89
2018-10-05T16:37:06.881Z,54.44
2018-10-05T16:39:36.444Z,54.13
2018-10-05T16:42:05.939Z,54.78
2018-10-05T16:44:35.440Z,54.80
2018-10-05T16:47:04.851Z,55.21
2018-10-05T16:49:34.270Z,55.45
2018-10-05T16:52:03.676Z,55.49
2018-10-05T16:54:33.196Z,55.73
2018-10-05T16:57:02.988Z,55.51
2018-10-05T16:59:33.084Z,56.45
2018-10-05T17:02:02.500Z,55.77
2018-10-05T17:04:31.885Z,56.75
2018-10-05T17:07:01.264Z,56.56
2018-10-05T17:09:30.788Z,56.19
2018-10-05T17:12:00.292Z,56.77
2018-10-05T17:19:23.936Z,56.84
2018-10-05T17:21:53.372Z,56.66
2018-10-05T17:24:22.808Z,57.16
2018-10-05T17:26:52.247Z,57.03
2018-10-05T17:29:21.827Z,57.63
2018-10-05T17:31:51.157Z,58.05
2018-10-05T17:34:20.568Z,57.38
2018-10-05T17:36:50.012Z,57.98
2018-10-05T17:39:19.416Z,58.32
2018-10-05T17:41:48.976Z,58.58
2018-10-05T17:44:18.381Z,58.18
2018-10-05T17:46:47.808Z,57.98
2018-10-05T17:49:17.230Z,58.79
2018-10-05T17:51:46.640Z,58.31
2018-10-05T17:54:16.050Z,59.17
2018-10-05T17:56:45.448Z,58.76
2018-10-05T17:59:14.853Z,59.37
2018-10-05T18:01:44.283Z,59.28
2018-10-05T18:04:13.732Z,59.25
2018-10-05T18:06:43.177Z,59.14
2018-10-05T18:09:12.568Z,59.95
2018-10-05T18:11:42.112Z,59.70
2018-10-05T18:14:11.533Z,59.99
2018-10-05T18:16:40.996Z,59.86
2018-10-05T18:19:10.428Z,60.23
2018-10-05T18:21:39.828Z,60.50
2018-10-05T18:24:09.229Z,60.58
2018-10-05T18:26:38.696Z,60.49
2018-10-05T18:29:08.112Z,61.24
2018-10-05T18:31:37.512Z,60.96
2018-10-05T18:34:07.196Z,61.61
2018-10-05T18:36:36.670Z,61.68
2018-10-05T18:39:09.380Z,61.47
2018-10-05T18:41:38.795Z,61.76
2018-10-05T18:44:08.252Z,61.83
2018-10-05T18:46:37.693Z,62.18
2018-10-05T18:49:07.099Z,61.88
2018-10-05T18:51:36.513Z,62.53
2018-10-05T18:54:05.964Z,63.01
2018-10-05T18:56:52.434Z,63.06
2018-10-05T18:59:21.918Z,62.98
2018-10-05T19:01:51.337Z,63.00
2018-10-05T19:04:20.742Z,63.21
2018-10-05T19:06:50.300Z,63.27
2018-10-05T19:09:19.676Z,63.56
2018-10-05T19:11:49.166Z,63.76
2018-10-05T19:14:18.585Z,63.65
2018-10-05T19:16:47.991Z,64.23
2018-10-05T19:19:17.391Z,64.04
2018-10-05T19:21:46.832Z,64.02
2018-10-05T19:24:16.246Z,64.48
2018-10-05T19:26:45.728Z,64.76
2018-10-05T19:29:15.164Z,64.39
2018-10-05T19:31:44.649Z,64.76
2018-10-05T19:34:14.040Z,64.83
2018-10-05T19:36:43.470Z,64.90
2018-10-05T19:39:13.053Z,65.15
2018-10-05T19:41:42.532Z,65.53
2018-10-05T19:44:12.264Z,65.58
2018-10-05T19:46:41.894Z,65.65
2018-10-05T19:49:11.299Z,65.46
2018-10-05T19:51:40.804Z,65.89
2018-10-05T19:54:10.309Z,66.00
2018-10-05T19:56:39.715Z,66.37
2018-10-05T19:59:09.260Z,66.06
2018-10-05T20:01:38.693Z,66.71
2018-10-05T20:04:08.127Z,66.22
2018-10-05T20:06:37.593Z,66.82
2018-10-05T20:09:08.547Z,66.28
2018-10-05T20:11:37.980Z,66.64
2018-10-05T20:14:07.378Z,66.27
2018-10-05T20:16:36.805Z,66.43
2018-10-05T20:19:06.450Z,66.96
2018-10-05T20:21:35.872Z,67.49
2018-10-05T20:24:05.484Z,67.10
2018-10-05T20:26:34.965Z,67.66
2018-10-05T20:29:04.372Z,67.58
2018-10-05T20:31:33.781Z,67.45
2018-10-05T20:34:03.718Z,67.60
2018-10-05T20:36:33.357Z,68.23
2018-10-05T20:39:02.545Z,68.45
2018-10-05T20:41:32.111Z,68.43
2018-10-05T20:44:01.599Z,68.53
2018-10-05T20:46:31.009Z,68.54
2018-10-05T20:49:00.723Z,68.65
2018-10-05T20:51:30.185Z,68.75
2018-10-05T20:53:59.576Z,69.07
2018-10-05T20:56:29.256Z,69.24
2018-10-05T20:58:58.663Z,69.20
2018-10-05T21:01:28.118Z,69.61
2018-10-05T21:03:57.549Z,69.88
2018-10-05T21:06:26.953Z,69.68
2018-10-05T21:08:56.439Z,69.70
2018-10-05T21:11:25.863Z,70.16
2018-10-05T21:13:55.232Z,70.05
2018-10-05T21:16:24.739Z,70.48
2018-10-05T21:18:54.172Z,70.47
2018-10-05T21:21:23.636Z,70.49
2018-10-05T21:23:53.012Z,70.97
2018-10-05T21:26:22.589Z,71.07
2018-10-05T21:28:51.988Z,71.11
2018-10-05T21:31:21.400Z,71.88
2018-10-05T21:33:50.817Z,71.98
2018-10-05T21:36:20.202Z,72.19
2018-10-05T21:38:49.692Z,72.31
2018-10-05T21:41:19.039Z,72.59
2018-10-05T21:43:48.423Z,72.75
2018-10-05T21:46:17.845Z,72.81
2018-10-05T21:48:47.261Z,72.98
2018-10-05T21:51:16.722Z,73.17
2018-10-05T21:53:46.068Z,73.00
2018-10-05T21:56:15.494Z,73.12
2018-10-05T21:58:44.892Z,73.21
2018-10-05T22:01:14.263Z,73.73
2018-10-05T22:03:46.624Z,73.35
2018-10-05T22:06:17.956Z,73.75
2018-10-05T22:08:47.464Z,74.46
2018-10-05T22:11:17.032Z,73.84
2018-10-05T22:13:46.456Z,73.87
2018-10-05T22:16:15.878Z,74.03
2018-10-05T22:18:45.306Z,74.46
2018-10-05T22:21:14.967Z,74.13
2018-10-05T22:23:44.399Z,74.91
2018-10-05T22:26:13.780Z,75.05
2018-10-05T22:28:43.163Z,74.66
2018-10-05T22:31:12.594Z,74.74
2018-10-05T22:33:42.038Z,74.85
2018-10-05T22:36:17.779Z,75.07
2018-10-05T22:38:47.167Z,75.28
2018-10-05T22:41:16.606Z,75.46
2018-10-05T22:43:46.013Z,75.18
2018-10-05T22:46:15.420Z,75.27
2018-10-05T22:48:44.919Z,75.58
2018-10-05T22:51:14.371Z,75.99
2018-10-05T22:53:43.792Z,75.90
2018-10-05T22:56:13.215Z,75.84
2018-10-05T22:58:42.879Z,76.06
2018-10-05T23:01:12.263Z,76.39
2018-10-05T23:03:41.747Z,76.23
2018-10-05T23:06:11.171Z,75.96
2018-10-05T23:08:40.560Z,76.19
2018-10-05T23:11:09.943Z,76.05
2018-10-05T23:13:39.516Z,77.12
2018-10-05T23:16:09.249Z,77.23
2018-10-05T23:18:38.894Z,76.54
2018-10-05T23:21:08.316Z,77.04
2018-10-05T23:23:37.719Z,77.10
2018-10-05T23:26:07.348Z,77.26
2018-10-05T23:28:36.757Z,77.08
2018-10-05T23:31:06.262Z,77.49
2018-10-05T23:33:35.667Z,77.48
2018-10-05T23:36:05.148Z,77.82
2018-10-05T23:38:34.568Z,77.34
2018-10-05T23:41:03.951Z,77.17
2018-10-05T23:43:33.465Z,77.89
2018-10-05T23:46:03.110Z,77.21
2018-10-05T23:48:32.867Z,77.57
2018-10-05T23:51:02.371Z,77.58
2018-10-05T23:53:31.747Z,77.39
2018-10-05T23:56:01.142Z,77.95
2018-10-05T23:58:30.553Z,78.16
